createdAt,value
2022-12-11T00:00:19.692Z,79.60
2022-12-11T00:02:47.892Z,79.52
2022-12-11T00:05:16.227Z,79.67
2022-12-11T00:07:44.299Z,79.65
2022-12-11T00:10:13.686Z,79.72
2022-12-11T00:12:45.068Z,79.65
2022-12-11T00:15:13.282Z,79.61
2022-12-11T00:17:41.558Z,79.78
2022-12-11T00:20:13.221Z,79.81
2022-12-11T00:22:41.162Z,79.73
2022-12-11T00:28:09.442Z,79.57
2022-12-11T00:31:07.069Z,79.77
2022-12-11T00:33:35.313Z,79.56
2022-12-11T00:36:04.089Z,79.75
2022-12-11T00:38:32.043Z,79.75
2022-12-11T00:41:00.481Z,79.82
2022-12-11T00:43:29.785Z,79.70
2022-12-11T00:45:57.796Z,79.74
2022-12-11T00:48:25.761Z,79.64
2022-12-11T00:50:56.620Z,79.71
2022-12-11T00:53:24.601Z,79.71
2022-12-11T00:55:52.646Z,79.92
2022-12-11T00:58:20.657Z,79.61
2022-12-11T01:00:50.137Z,79.82
2022-12-11T01:03:18.555Z,79.73
2022-12-11T01:05:52.696Z,79.87
2022-12-11T01:08:20.677Z,79.92
2022-12-11T01:10:47.998Z,79.83
2022-12-11T01:13:15.942Z,79.82
2022-12-11T01:15:45.564Z,79.63
2022-12-11T01:18:15.761Z,79.86
2022-12-11T01:20:44.341Z,79.81
2022-12-11T01:23:14.060Z,79.75
2022-12-11T01:25:42.262Z,79.87
2022-12-11T01:28:10.650Z,79.81
2022-12-11T01:30:38.804Z,79.97
2022-12-11T01:33:06.724Z,79.94
2022-12-11T01:35:36.556Z,80.03
2022-12-11T01:38:04.851Z,80.27
2022-12-11T01:40:32.922Z,80.18
2022-12-11T01:43:00.828Z,80.24
2022-12-11T01:45:30.975Z,80.22
2022-12-11T01:48:02.603Z,80.35
2022-12-11T01:50:32.855Z,80.13
2022-12-11T01:53:02.391Z,80.40
2022-12-11T01:55:30.341Z,80.57
2022-12-11T01:57:58.267Z,80.71
2022-12-11T02:00:26.246Z,80.84
2022-12-11T02:02:54.253Z,81.49
2022-12-11T02:05:22.253Z,81.31
2022-12-11T02:07:52.754Z,81.46
2022-12-11T02:10:23.084Z,81.24
2022-12-11T02:12:55.920Z,81.17
2022-12-11T02:15:26.923Z,81.06
2022-12-11T02:18:01.304Z,81.39
2022-12-11T02:20:32.793Z,81.17
2022-12-11T02:23:15.125Z,81.37
2022-12-11T02:25:49.578Z,81.52
2022-12-11T02:28:22.474Z,81.56
2022-12-11T02:30:53.142Z,81.55
2022-12-11T02:33:23.071Z,81.53
2022-12-11T02:35:51.788Z,81.49
2022-12-11T02:38:24.027Z,81.58
2022-12-11T02:40:53.882Z,80.90
2022-12-11T02:43:24.679Z,81.19
2022-12-11T02:45:54.040Z,81.34
2022-12-11T02:48:24.134Z,81.87
2022-12-11T02:50:53.831Z,81.75
2022-12-11T02:53:23.471Z,81.65
2022-12-11T02:55:53.512Z,82.00
2022-12-11T02:58:23.354Z,82.22
2022-12-11T03:00:54.435Z,82.14
2022-12-11T03:03:23.321Z,82.36
2022-12-11T03:05:51.264Z,82.13
2022-12-11T03:08:19.236Z,82.01
2022-12-11T03:10:47.535Z,82.31
2022-12-11T03:13:19.524Z,82.23
2022-12-11T03:15:51.207Z,81.72
2022-12-11T03:18:23.561Z,81.88
2022-12-11T03:20:55.259Z,82.10
2022-12-11T03:23:28.306Z,82.14
2022-12-11T03:25:58.129Z,82.25
2022-12-11T03:28:29.001Z,81.75
2022-12-11T03:30:57.936Z,82.07
2022-12-11T03:33:30.884Z,82.00
2022-12-11T03:36:02.401Z,81.99
2022-12-11T03:38:33.247Z,81.97
2022-12-11T03:41:03.397Z,82.26
2022-12-11T03:43:32.935Z,82.50
2022-12-11T03:46:01.940Z,82.89
2022-12-11T03:48:34.087Z,82.58
2022-12-11T03:51:03.653Z,82.67
2022-12-11T03:53:31.829Z,82.52
2022-12-11T03:56:00.935Z,82.47
2022-12-11T03:58:28.893Z,82.47
2022-12-11T04:00:56.790Z,82.46
2022-12-11T04:03:24.811Z,81.98
2022-12-11T04:05:55.282Z,82.30
2022-12-11T04:08:23.511Z,82.37
2022-12-11T04:11:12.452Z,82.15
2022-12-11T04:13:40.979Z,82.13
2022-12-11T04:16:08.015Z,82.42
2022-12-11T04:18:53.312Z,82.00
2022-12-11T04:21:40.170Z,82.04
2022-12-11T04:24:17.967Z,82.12
2022-12-11T04:26:46.308Z,82.52
2022-12-11T04:29:14.326Z,82.57
2022-12-11T04:31:42.302Z,82.56
2022-12-11T04:34:10.557Z,83.01
2022-12-11T04:36:40.126Z,83.21
2022-12-11T04:39:08.177Z,82.61
2022-12-11T04:41:37.310Z,83.01
2022-12-11T04:44:05.504Z,82.33
2022-12-11T04:46:33.495Z,82.58
2022-12-11T04:49:01.538Z,82.47
2022-12-11T04:51:29.613Z,82.47
2022-12-11T04:53:59.574Z,82.22
2022-12-11T04:56:27.600Z,82.34
2022-12-11T04:58:55.603Z,82.39
2022-12-11T05:01:23.909Z,82.25
2022-12-11T05:03:52.269Z,81.93
2022-12-11T05:06:20.223Z,82.61
2022-12-11T05:08:48.188Z,82.68
2022-12-11T05:11:18.198Z,82.66
2022-12-11T05:13:46.699Z,82.70
2022-12-11T05:16:15.547Z,82.91
2022-12-11T05:18:43.613Z,83.01
2022-12-11T05:21:12.261Z,82.83
2022-12-11T05:23:40.683Z,83.03
2022-12-11T05:26:09.635Z,82.85
2022-12-11T05:28:39.731Z,82.70
2022-12-11T05:31:09.043Z,83.13
2022-12-11T05:33:37.052Z,83.25
2022-12-11T05:36:05.318Z,83.43
2022-12-11T05:38:33.457Z,83.21
2022-12-11T05:41:02.260Z,83.20
2022-12-11T05:43:33.644Z,82.86
2022-12-11T05:46:07.746Z,82.57
2022-12-11T05:48:35.746Z,82.59
2022-12-11T05:51:04.712Z,82.93
2022-12-11T05:53:32.979Z,82.44
2022-12-11T05:56:03.918Z,82.25
2022-12-11T05:58:32.075Z,82.41
2022-12-11T06:01:00.195Z,82.35
2022-12-11T06:03:29.951Z,82.72
2022-12-11T06:05:57.867Z,82.50
2022-12-11T06:08:25.928Z,82.34
2022-12-11T06:10:53.910Z,82.34
2022-12-11T06:13:21.958Z,82.52
2022-12-11T06:15:50.060Z,82.19
2022-12-11T06:18:18.021Z,82.01
2022-12-11T06:20:47.376Z,82.13
2022-12-11T06:23:15.364Z,82.25
2022-12-11T06:25:43.337Z,82.29
2022-12-11T06:28:11.656Z,81.77
2022-12-11T06:30:39.722Z,81.93
2022-12-11T06:33:07.799Z,81.78
2022-12-11T06:35:41.782Z,81.61
2022-12-11T06:38:11.955Z,81.92
2022-12-11T06:40:40.899Z,81.84
2022-12-11T06:43:08.924Z,81.91
2022-12-11T06:45:38.310Z,81.67
2022-12-11T06:48:06.440Z,81.64
2022-12-11T06:50:34.470Z,81.50
2022-12-11T06:53:02.412Z,81.66
2022-12-11T06:55:31.798Z,81.51
2022-12-11T06:57:59.816Z,81.56
2022-12-11T07:00:27.856Z,81.37
2022-12-11T07:02:55.830Z,81.47
2022-12-11T07:05:23.944Z,81.33
2022-12-11T07:07:54.200Z,81.38
2022-12-11T07:10:22.579Z,81.29
2022-12-11T07:12:53.507Z,81.47
2022-12-11T07:15:21.807Z,81.10
2022-12-11T07:17:50.025Z,81.18
2022-12-11T07:20:18.198Z,81.38
2022-12-11T07:22:46.770Z,81.16
2022-12-11T07:25:15.439Z,81.05
2022-12-11T07:27:43.647Z,80.81
2022-12-11T07:30:13.847Z,80.61
2022-12-11T07:32:42.018Z,80.59
2022-12-11T07:35:10.846Z,80.68
2022-12-11T07:37:41.169Z,80.71
2022-12-11T07:40:09.993Z,80.93
2022-12-11T07:42:42.794Z,80.49
2022-12-11T07:45:15.263Z,80.68
2022-12-11T07:47:43.229Z,80.42
2022-12-11T07:50:11.885Z,80.45
2022-12-11T07:52:40.687Z,80.02
2022-12-11T07:55:09.170Z,79.88
2022-12-11T07:57:37.473Z,79.79
2022-12-11T08:00:05.818Z,79.66
2022-12-11T08:02:37.358Z,79.60
2022-12-11T08:05:06.286Z,79.60
2022-12-11T08:07:35.459Z,79.48
2022-12-11T08:10:03.557Z,79.26
2022-12-11T08:12:31.642Z,78.96
2022-12-11T08:14:59.674Z,79.37
2022-12-11T08:17:30.961Z,79.20
2022-12-11T08:20:03.338Z,78.94
2022-12-11T08:22:31.529Z,78.86
2022-12-11T08:24:59.481Z,78.72
2022-12-11T08:27:27.635Z,79.16
2022-12-11T08:29:55.614Z,78.84
2022-12-11T08:32:23.542Z,78.83
2022-12-11T08:34:52.432Z,78.83
2022-12-11T08:37:21.769Z,78.67
2022-12-11T08:39:49.806Z,78.70
2022-12-11T08:42:17.713Z,78.72
2022-12-11T08:44:46.156Z,78.59
2022-12-11T08:47:15.544Z,78.04
2022-12-11T08:49:43.605Z,78.38
2022-12-11T08:52:11.595Z,78.54
2022-12-11T08:54:41.124Z,78.17
2022-12-11T08:57:09.151Z,78.12
2022-12-11T08:59:37.132Z,78.56
2022-12-11T09:02:05.071Z,78.05
2022-12-11T09:04:33.050Z,77.83
2022-12-11T09:07:01.089Z,78.22
2022-12-11T09:09:29.278Z,77.75
2022-12-11T09:11:59.402Z,77.91
2022-12-11T09:14:27.536Z,78.14
2022-12-11T09:16:55.523Z,77.84
2022-12-11T09:19:27.846Z,77.60
2022-12-11T09:21:58.854Z,77.64
2022-12-11T09:24:26.785Z,78.00
2022-12-11T09:26:56.907Z,77.84
2022-12-11T09:29:26.416Z,77.82
2022-12-11T09:31:54.360Z,77.80
2022-12-11T09:34:27.548Z,77.98
2022-12-11T09:36:57.289Z,77.71
2022-12-11T09:39:25.351Z,77.58
2022-12-11T09:41:56.956Z,77.59
2022-12-11T09:44:33.986Z,77.58
2022-12-11T09:47:02.153Z,77.73
2022-12-11T09:49:35.598Z,77.01
2022-12-11T09:52:08.738Z,77.45
2022-12-11T09:54:36.868Z,77.45
2022-12-11T09:57:11.873Z,77.38
2022-12-11T09:59:47.032Z,76.75
2022-12-11T10:02:23.413Z,77.03
2022-12-11T10:04:54.670Z,76.67
2022-12-11T10:07:27.936Z,76.81
2022-12-11T10:10:01.148Z,77.07
2022-12-11T10:12:34.323Z,77.08
2022-12-11T10:15:13.411Z,77.47
2022-12-11T10:17:42.118Z,77.42
2022-12-11T10:20:23.482Z,77.03
2022-12-11T10:22:53.272Z,77.31
2022-12-11T10:25:22.368Z,77.30
2022-12-11T10:27:51.238Z,77.14
2022-12-11T10:30:21.872Z,76.90
2022-12-11T10:32:54.234Z,77.03
2022-12-11T10:35:29.333Z,77.32
2022-12-11T10:37:58.601Z,77.29
2022-12-11T10:40:27.365Z,77.30
2022-12-11T10:42:56.325Z,77.12
2022-12-11T10:45:26.474Z,76.63
2022-12-11T10:48:03.164Z,77.09
2022-12-11T10:50:31.187Z,77.21
2022-12-11T10:52:59.606Z,76.96
2022-12-11T10:55:29.721Z,76.79
2022-12-11T10:58:00.038Z,77.05
2022-12-11T11:00:32.132Z,76.98
2022-12-11T11:03:00.394Z,77.31
2022-12-11T11:05:34.380Z,77.04
2022-12-11T11:08:13.973Z,77.27
2022-12-11T11:10:51.241Z,77.31
2022-12-11T11:13:19.516Z,77.06
2022-12-11T11:15:49.145Z,76.96
2022-12-11T11:18:21.570Z,76.87
2022-12-11T11:20:49.833Z,77.32
2022-12-11T11:23:19.891Z,77.27
2022-12-11T11:25:51.728Z,77.40
2022-12-11T11:28:21.973Z,77.22
2022-12-11T11:31:03.355Z,77.38
2022-12-11T11:33:32.388Z,77.28
2022-12-11T11:36:01.866Z,77.51
2022-12-11T11:38:33.034Z,77.37
2022-12-11T11:41:11.571Z,77.90
2022-12-11T11:43:44.581Z,77.55
2022-12-11T11:46:16.389Z,77.50
2022-12-11T11:48:52.173Z,77.62
2022-12-11T11:51:23.012Z,77.38
2022-12-11T11:53:52.044Z,77.83
2022-12-11T11:56:23.122Z,77.53
2022-12-11T11:59:02.380Z,77.86
2022-12-11T12:01:32.061Z,77.79
2022-12-11T12:04:00.337Z,77.93
2022-12-11T12:06:35.733Z,77.89
2022-12-11T12:09:09.409Z,78.04
2022-12-11T12:11:41.907Z,78.16
2022-12-11T12:14:43.663Z,78.13
2022-12-11T12:17:11.342Z,77.91
2022-12-11T12:19:53.153Z,78.18
2022-12-11T12:22:29.253Z,77.98
2022-12-11T12:25:03.738Z,77.95
2022-12-11T12:27:53.842Z,78.49
2022-12-11T12:30:23.667Z,78.42
2022-12-11T12:32:59.695Z,78.08
2022-12-11T12:35:35.543Z,78.19
2022-12-11T12:38:07.483Z,78.49
2022-12-11T12:40:37.876Z,78.35
2022-12-11T12:43:07.116Z,78.53
2022-12-11T12:45:38.774Z,78.39
2022-12-11T12:48:09.171Z,78.64
2022-12-11T12:50:39.768Z,78.51
2022-12-11T12:53:09.455Z,78.87
2022-12-11T12:55:37.966Z,78.61
2022-12-11T12:58:07.223Z,78.42
2022-12-11T13:00:37.076Z,78.34
2022-12-11T13:03:14.761Z,78.49
2022-12-11T13:05:45.920Z,78.36
2022-12-11T13:08:14.350Z,78.17
2022-12-11T13:10:43.537Z,78.37
2022-12-11T13:13:26.344Z,78.67
2022-12-11T13:15:54.529Z,78.32
2022-12-11T13:18:36.060Z,78.69
2022-12-11T13:21:25.730Z,78.47
2022-12-11T13:23:54.081Z,78.67
2022-12-11T13:26:29.524Z,78.50
2022-12-11T13:28:58.326Z,78.36
2022-12-11T13:31:34.795Z,78.46
2022-12-11T13:34:16.224Z,78.68
2022-12-11T13:36:49.835Z,78.56
2022-12-11T13:39:19.451Z,78.45
2022-12-11T13:41:50.010Z,78.55
2022-12-11T13:44:21.580Z,78.74
2022-12-11T13:46:51.036Z,78.91
2022-12-11T13:49:23.798Z,78.87
2022-12-11T13:51:58.024Z,79.06
2022-12-11T13:54:26.311Z,79.05
2022-12-11T13:56:58.706Z,79.19
2022-12-11T13:59:27.975Z,79.39
2022-12-11T14:01:57.509Z,78.98
2022-12-11T14:04:28.282Z,78.86
2022-12-11T14:06:58.184Z,78.79
2022-12-11T14:09:27.767Z,79.17
2022-12-11T14:11:57.511Z,78.74
2022-12-11T14:14:27.855Z,78.81
2022-12-11T14:16:55.841Z,79.25
2022-12-11T14:19:25.463Z,79.24
2022-12-11T14:21:58.720Z,78.94
2022-12-11T14:24:26.788Z,78.96
2022-12-11T14:26:55.511Z,79.29
2022-12-11T14:29:27.228Z,79.01
2022-12-11T14:31:55.590Z,78.86
2022-12-11T14:34:26.402Z,78.73
2022-12-11T14:36:54.945Z,79.05
2022-12-11T14:39:27.053Z,78.92
2022-12-11T14:41:57.804Z,78.92
2022-12-11T14:44:27.468Z,78.84
2022-12-11T14:46:57.646Z,79.45
2022-12-11T14:49:28.086Z,79.45
2022-12-11T14:51:56.760Z,79.88
2022-12-11T14:54:29.339Z,79.85
2022-12-11T14:56:58.045Z,79.79
2022-12-11T14:59:31.609Z,80.16
2022-12-11T15:02:01.493Z,80.34
2022-12-11T15:04:30.789Z,80.40
2022-12-11T15:06:59.778Z,80.43
2022-12-11T15:09:30.184Z,80.86
2022-12-11T15:12:00.569Z,81.12
2022-12-11T15:14:29.639Z,81.01
2022-12-11T15:16:58.557Z,81.33
2022-12-11T15:19:31.380Z,80.96
2022-12-11T15:22:04.323Z,80.94
2022-12-11T15:24:36.330Z,80.92
2022-12-11T15:27:04.453Z,81.05
2022-12-11T15:29:34.507Z,80.92
2022-12-11T15:32:03.702Z,80.93
2022-12-11T15:34:36.072Z,81.00
2022-12-11T15:37:03.979Z,80.94
2022-12-11T15:39:33.322Z,81.12
2022-12-11T15:42:01.339Z,80.69
2022-12-11T15:44:29.337Z,80.68
2022-12-11T15:46:57.274Z,80.91
2022-12-11T15:49:25.361Z,81.28
2022-12-11T15:51:54.706Z,81.32
2022-12-11T15:54:22.729Z,81.50
2022-12-11T15:56:52.247Z,81.41
2022-12-11T15:59:20.523Z,81.23
2022-12-11T16:01:48.694Z,81.42
2022-12-11T16:04:16.710Z,81.56
2022-12-11T16:06:47.047Z,81.31
2022-12-11T16:09:14.986Z,81.40
2022-12-11T16:11:43.226Z,81.65
2022-12-11T16:14:12.651Z,81.64
2022-12-11T16:16:40.575Z,81.43
2022-12-11T16:19:08.689Z,81.61
2022-12-11T16:21:36.623Z,82.08
2022-12-11T16:24:04.680Z,82.00
2022-12-11T16:26:33.336Z,81.83
2022-12-11T16:29:01.919Z,81.76
2022-12-11T16:31:31.277Z,81.82
2022-12-11T16:33:59.339Z,82.16
2022-12-11T16:36:27.255Z,82.28
2022-12-11T16:38:55.322Z,82.48
2022-12-11T16:41:24.152Z,82.26
2022-12-11T16:43:52.523Z,82.36
2022-12-11T16:46:20.895Z,82.26
2022-12-11T16:48:50.514Z,82.49
2022-12-11T16:51:18.501Z,82.47
2022-12-11T16:53:46.748Z,82.19
2022-12-11T16:56:14.706Z,82.27
2022-12-11T16:58:42.652Z,82.50
2022-12-11T17:01:12.312Z,82.25
2022-12-11T17:03:40.924Z,82.44
2022-12-11T17:06:11.182Z,82.65
2022-12-11T17:08:39.365Z,82.99
2022-12-11T17:11:07.629Z,83.06
2022-12-11T17:13:36.513Z,82.78
2022-12-11T17:16:06.230Z,83.16
2022-12-11T17:18:34.203Z,82.92
2022-12-11T17:21:07.913Z,82.73
2022-12-11T17:23:37.370Z,83.06
2022-12-11T17:26:05.510Z,82.98
2022-12-11T17:28:33.832Z,83.12
2022-12-11T17:31:05.182Z,83.34
2022-12-11T17:33:33.249Z,83.45
2022-12-11T17:36:01.372Z,83.43
2022-12-11T17:38:29.767Z,83.55
2022-12-11T17:40:59.211Z,83.33
2022-12-11T17:43:27.415Z,83.36
2022-12-11T17:45:55.569Z,83.53
2022-12-11T17:48:23.635Z,83.50
2022-12-11T17:50:52.748Z,83.78
2022-12-11T17:53:21.730Z,83.69
2022-12-11T17:55:52.010Z,83.56
2022-12-11T17:58:22.473Z,83.59
2022-12-11T18:00:51.437Z,83.57
2022-12-11T18:03:19.918Z,83.97
2022-12-11T18:05:48.747Z,83.42
2022-12-11T18:08:17.364Z,83.51
2022-12-11T18:10:45.715Z,83.52
2022-12-11T18:13:14.000Z,83.53
2022-12-11T18:15:43.505Z,83.64
2022-12-11T18:18:11.457Z,83.81
2022-12-11T18:20:40.387Z,83.84
2022-12-11T18:23:08.454Z,83.84
2022-12-11T18:25:36.535Z,83.80
2022-12-11T18:28:04.560Z,83.75
2022-12-11T18:30:32.682Z,84.19
2022-12-11T18:33:02.133Z,84.22
2022-12-11T18:35:30.665Z,84.06
2022-12-11T18:37:58.803Z,83.89
2022-12-11T18:40:26.869Z,83.89
2022-12-11T18:42:54.736Z,84.02
2022-12-11T18:45:23.020Z,83.76
2022-12-11T18:47:51.679Z,83.92
2022-12-11T18:50:21.046Z,84.15
2022-12-11T18:52:49.134Z,84.22
2022-12-11T18:55:17.217Z,84.30
2022-12-11T18:57:45.146Z,84.21
2022-12-11T19:00:13.749Z,84.60
2022-12-11T19:02:41.750Z,84.86
2022-12-11T19:05:09.879Z,85.23
2022-12-11T19:07:39.452Z,85.06
2022-12-11T19:10:07.903Z,84.98
2022-12-11T19:12:35.908Z,84.61
2022-12-11T19:15:04.058Z,84.96
2022-12-11T19:17:32.096Z,84.86
2022-12-11T19:20:05.300Z,84.70
2022-12-11T19:22:48.368Z,84.36
2022-12-11T19:25:16.269Z,84.95
2022-12-11T19:27:44.214Z,85.54
2022-12-11T19:30:13.581Z,85.60
2022-12-11T19:32:41.488Z,87.35
2022-12-11T19:35:09.897Z,87.58
2022-12-11T19:37:38.253Z,88.31
2022-12-11T19:40:09.492Z,87.85
2022-12-11T19:42:37.647Z,87.82
2022-12-11T19:45:08.289Z,87.96
2022-12-11T19:47:36.366Z,87.92
2022-12-11T19:50:04.882Z,88.27
2022-12-11T19:52:33.001Z,88.34
2022-12-11T19:55:02.682Z,88.38
2022-12-11T19:57:34.245Z,88.62
2022-12-11T20:00:02.247Z,88.31
2022-12-11T20:02:30.318Z,88.30
2022-12-11T20:04:58.279Z,88.27
2022-12-11T20:07:30.461Z,88.16
2022-12-11T20:10:00.745Z,88.18
2022-12-11T20:12:29.189Z,88.27
2022-12-11T20:14:58.687Z,88.19
2022-12-11T20:17:26.735Z,88.11
2022-12-11T20:19:54.846Z,88.27
2022-12-11T20:22:22.836Z,88.39
2022-12-11T20:24:50.951Z,88.47
2022-12-11T20:27:18.873Z,88.57
2022-12-11T20:29:46.863Z,88.48
2022-12-11T20:32:16.261Z,88.43
2022-12-11T20:34:44.220Z,88.45
2022-12-11T20:37:12.599Z,88.46
2022-12-11T20:39:40.554Z,88.72
2022-12-11T20:42:10.032Z,88.30
2022-12-11T20:44:38.053Z,88.31
2022-12-11T20:47:06.845Z,88.21
2022-12-11T20:49:36.778Z,88.22
2022-12-11T20:52:04.888Z,88.18
2022-12-11T20:54:32.927Z,88.07
2022-12-11T20:57:01.163Z,88.02
2022-12-11T20:59:29.153Z,88.19
2022-12-11T21:01:57.226Z,88.24
2022-12-11T21:04:27.873Z,87.87
2022-12-11T21:06:57.298Z,88.35
2022-12-11T21:09:26.661Z,88.22
2022-12-11T21:11:54.938Z,88.54
2022-12-11T21:14:22.829Z,89.10
2022-12-11T21:16:51.099Z,88.95
2022-12-11T21:19:20.351Z,88.98
2022-12-11T21:21:48.699Z,88.89
2022-12-11T21:24:19.704Z,88.78
2022-12-11T21:26:48.738Z,88.94
2022-12-11T21:29:17.052Z,88.99
2022-12-11T21:31:45.396Z,88.88
2022-12-11T21:34:14.141Z,88.92
2022-12-11T21:36:44.650Z,88.78
2022-12-11T21:39:13.327Z,88.92
2022-12-11T21:41:42.856Z,88.90
2022-12-11T21:46:59.884Z,88.62
2022-12-11T21:49:27.931Z,89.24
2022-12-11T21:51:56.068Z,89.08
2022-12-11T21:54:26.308Z,89.05
2022-12-11T21:57:03.137Z,88.94
2022-12-11T21:59:31.752Z,88.91
2022-12-11T22:02:01.541Z,89.38
2022-12-11T22:04:33.320Z,89.13
2022-12-11T22:07:01.708Z,89.38
2022-12-11T22:09:32.282Z,89.08
2022-12-11T22:14:36.782Z,88.95
2022-12-11T22:17:04.781Z,89.16
2022-12-11T22:19:33.035Z,89.35
2022-12-11T22:22:01.306Z,89.37
2022-12-11T22:24:29.271Z,89.15
2022-12-11T22:26:57.245Z,89.26
2022-12-11T22:29:26.589Z,88.74
2022-12-11T22:31:55.049Z,88.73
2022-12-11T22:34:23.477Z,88.77
2022-12-11T22:36:51.464Z,88.86
2022-12-11T22:39:19.492Z,88.87
2022-12-11T22:41:47.610Z,89.19
2022-12-11T22:44:20.139Z,88.90
2022-12-11T22:46:50.735Z,88.84
2022-12-11T22:49:19.150Z,88.90
2022-12-11T22:51:47.142Z,88.93
2022-12-11T22:54:15.267Z,89.28
2022-12-11T22:56:43.287Z,89.07
2022-12-11T22:59:11.194Z,89.00
2022-12-11T23:01:39.230Z,89.02
2022-12-11T23:04:08.728Z,89.60
2022-12-11T23:06:36.774Z,89.34
2022-12-11T23:09:05.252Z,89.21
2022-12-11T23:11:36.504Z,89.25
2022-12-11T23:14:05.042Z,89.05
2022-12-11T23:16:34.148Z,88.84
2022-12-11T23:19:02.284Z,89.48
2022-12-11T23:21:31.740Z,89.65
2022-12-11T23:24:00.109Z,89.41
2022-12-11T23:26:28.851Z,89.57
2022-12-11T23:28:57.772Z,88.71
2022-12-11T23:31:27.109Z,88.70
2022-12-11T23:33:55.350Z,89.33
2022-12-11T23:36:23.335Z,89.41
2022-12-11T23:38:54.945Z,89.53
2022-12-11T23:41:23.750Z,89.24
2022-12-11T23:43:51.708Z,89.41
2022-12-11T23:46:21.539Z,89.14
2022-12-11T23:48:49.641Z,89.07
2022-12-11T23:51:19.112Z,89.06
2022-12-11T23:53:47.731Z,88.90
2022-12-11T23:56:19.238Z,89.29
2022-12-11T23:58:47.485Z,88.87
